sensor_id;sensor_type;location;lat;lon;timestamp;temperature;humidity
76897;SHT30;65856;52.178;21.176;2023-12-20T00:01:16;7.53;84.50
76897;SHT30;65856;52.178;21.176;2023-12-20T00:03:42;7.54;84.50
76897;SHT30;65856;52.178;21.176;2023-12-20T00:06:07;7.53;84.50
76897;SHT30;65856;52.178;21.176;2023-12-20T00:08:33;7.53;84.51
76897;SHT30;65856;52.178;21.176;2023-12-20T00:10:58;7.52;84.54
76897;SHT30;65856;52.178;21.176;2023-12-20T00:13:23;7.53;84.60
76897;SHT30;65856;52.178;21.176;2023-12-20T00:15:49;7.54;84.60
76897;SHT30;65856;52.178;21.176;2023-12-20T00:18:14;7.54;84.61
76897;SHT30;65856;52.178;21.176;2023-12-20T00:20:40;7.54;84.62
76897;SHT30;65856;52.178;21.176;2023-12-20T00:23:05;7.53;84.69
76897;SHT30;65856;52.178;21.176;2023-12-20T00:25:30;7.54;84.70
76897;SHT30;65856;52.178;21.176;2023-12-20T00:27:56;7.56;84.70
76897;SHT30;65856;52.178;21.176;2023-12-20T00:30:21;7.58;84.70
76897;SHT30;65856;52.178;21.176;2023-12-20T00:32:46;7.58;84.70
76897;SHT30;65856;52.178;21.176;2023-12-20T00:35:15;7.58;84.70
76897;SHT30;65856;52.178;21.176;2023-12-20T00:37:41;7.58;84.71
76897;SHT30;65856;52.178;21.176;2023-12-20T00:40:08;7.59;84.71
76897;SHT30;65856;52.178;21.176;2023-12-20T00:42:34;7.60;84.71
76897;SHT30;65856;52.178;21.176;2023-12-20T00:45:03;7.61;84.70
76897;SHT30;65856;52.178;21.176;2023-12-20T00:47:30;7.62;84.71
76897;SHT30;65856;52.178;21.176;2023-12-20T00:49:56;7.63;84.70
76897;SHT30;65856;52.178;21.176;2023-12-20T00:52:22;7.63;84.71
76897;SHT30;65856;52.178;21.176;2023-12-20T00:54:48;7.65;84.72
76897;SHT30;65856;52.178;21.176;2023-12-20T00:57:13;7.64;84.70
76897;SHT30;65856;52.178;21.176;2023-12-20T00:59:39;7.64;84.70
76897;SHT30;65856;52.178;21.176;2023-12-20T01:02:04;7.63;84.71
76897;SHT30;65856;52.178;21.176;2023-12-20T01:04:30;7.64;84.77
76897;SHT30;65856;52.178;21.176;2023-12-20T01:06:55;7.64;84.77
76897;SHT30;65856;52.178;21.176;2023-12-20T01:09:20;7.64;84.76
76897;SHT30;65856;52.178;21.176;2023-12-20T01:11:48;7.65;84.76
76897;SHT30;65856;52.178;21.176;2023-12-20T01:14:14;7.66;84.78
76897;SHT30;65856;52.178;21.176;2023-12-20T01:16:39;7.66;84.75
76897;SHT30;65856;52.178;21.176;2023-12-20T01:19:05;7.67;84.77
76897;SHT30;65856;52.178;21.176;2023-12-20T01:21:30;7.68;84.73
76897;SHT30;65856;52.178;21.176;2023-12-20T01:23:56;7.69;84.70
76897;SHT30;65856;52.178;21.176;2023-12-20T01:26:21;7.70;84.75
76897;SHT30;65856;52.178;21.176;2023-12-20T01:28:46;7.71;84.72
76897;SHT30;65856;52.178;21.176;2023-12-20T01:31:12;7.69;84.71
76897;SHT30;65856;52.178;21.176;2023-12-20T01:33:37;7.68;84.70
76897;SHT30;65856;52.178;21.176;2023-12-20T01:36:03;7.64;84.70
76897;SHT30;65856;52.178;21.176;2023-12-20T01:38:29;7.64;84.73
76897;SHT30;65856;52.178;21.176;2023-12-20T01:40:54;7.66;84.80
76897;SHT30;65856;52.178;21.176;2023-12-20T01:43:20;7.67;84.79
76897;SHT30;65856;52.178;21.176;2023-12-20T01:45:46;7.66;84.80
76897;SHT30;65856;52.178;21.176;2023-12-20T01:48:12;7.67;84.80
76897;SHT30;65856;52.178;21.176;2023-12-20T01:50:39;7.67;84.78
76897;SHT30;65856;52.178;21.176;2023-12-20T01:53:05;7.66;84.78
76897;SHT30;65856;52.178;21.176;2023-12-20T01:55:34;7.66;84.78
76897;SHT30;65856;52.178;21.176;2023-12-20T01:58:04;7.65;84.73
76897;SHT30;65856;52.178;21.176;2023-12-20T02:00:31;7.64;84.79
76897;SHT30;65856;52.178;21.176;2023-12-20T02:02:56;7.65;84.80
76897;SHT30;65856;52.178;21.176;2023-12-20T02:05:26;7.66;84.79
76897;SHT30;65856;52.178;21.176;2023-12-20T02:07:53;7.66;84.74
76897;SHT30;65856;52.178;21.176;2023-12-20T02:10:18;7.64;84.73
76897;SHT30;65856;52.178;21.176;2023-12-20T02:12:44;7.64;84.72
76897;SHT30;65856;52.178;21.176;2023-12-20T02:15:09;7.62;84.77
76897;SHT30;65856;52.178;21.176;2023-12-20T02:17:35;7.63;84.74
76897;SHT30;65856;52.178;21.176;2023-12-20T02:20:01;7.61;84.74
76897;SHT30;65856;52.178;21.176;2023-12-20T02:22:27;7.62;84.80
76897;SHT30;65856;52.178;21.176;2023-12-20T02:24:53;7.64;84.80
76897;SHT30;65856;52.178;21.176;2023-12-20T02:27:18;7.64;84.80
76897;SHT30;65856;52.178;21.176;2023-12-20T02:29:46;7.66;84.79
76897;SHT30;65856;52.178;21.176;2023-12-20T02:32:13;7.64;84.77
76897;SHT30;65856;52.178;21.176;2023-12-20T02:34:38;7.62;84.78
76897;SHT30;65856;52.178;21.176;2023-12-20T02:37:03;7.63;84.77
76897;SHT30;65856;52.178;21.176;2023-12-20T02:39:29;7.63;84.76
76897;SHT30;65856;52.178;21.176;2023-12-20T02:41:55;7.64;84.78
76897;SHT30;65856;52.178;21.176;2023-12-20T02:44:21;7.64;84.74
76897;SHT30;65856;52.178;21.176;2023-12-20T02:46:46;7.62;84.70
76897;SHT30;65856;52.178;21.176;2023-12-20T02:49:11;7.61;84.68
76897;SHT30;65856;52.178;21.176;2023-12-20T02:51:37;7.59;84.66
76897;SHT30;65856;52.178;21.176;2023-12-20T02:54:05;7.57;84.65
76897;SHT30;65856;52.178;21.176;2023-12-20T02:56:32;7.58;84.68
76897;SHT30;65856;52.178;21.176;2023-12-20T02:58:58;7.59;84.62
76897;SHT30;65856;52.178;21.176;2023-12-20T03:01:23;7.60;84.65
76897;SHT30;65856;52.178;21.176;2023-12-20T03:03:49;7.61;84.61
76897;SHT30;65856;52.178;21.176;2023-12-20T03:06:18;7.61;84.59
76897;SHT30;65856;52.178;21.176;2023-12-20T03:08:44;7.60;84.57
76897;SHT30;65856;52.178;21.176;2023-12-20T03:11:10;7.60;84.50
76897;SHT30;65856;52.178;21.176;2023-12-20T03:13:36;7.60;84.50
76897;SHT30;65856;52.178;21.176;2023-12-20T03:16:07;7.60;84.50
76897;SHT30;65856;52.178;21.176;2023-12-20T03:18:37;7.58;84.41
76897;SHT30;65856;52.178;21.176;2023-12-20T03:21:02;7.57;84.40
76897;SHT30;65856;52.178;21.176;2023-12-20T03:23:29;7.57;84.49
76897;SHT30;65856;52.178;21.176;2023-12-20T03:25:55;7.57;84.50
76897;SHT30;65856;52.178;21.176;2023-12-20T03:28:21;7.57;84.50
76897;SHT30;65856;52.178;21.176;2023-12-20T03:30:48;7.57;84.50
76897;SHT30;65856;52.178;21.176;2023-12-20T03:33:13;7.59;84.50
76897;SHT30;65856;52.178;21.176;2023-12-20T03:35:39;7.60;84.49
76897;SHT30;65856;52.178;21.176;2023-12-20T03:38:04;7.61;84.50
76897;SHT30;65856;52.178;21.176;2023-12-20T03:40:30;7.59;84.50
76897;SHT30;65856;52.178;21.176;2023-12-20T03:42:55;7.57;84.51
76897;SHT30;65856;52.178;21.176;2023-12-20T03:45:21;7.58;84.50
76897;SHT30;65856;52.178;21.176;2023-12-20T03:47:46;7.58;84.50
76897;SHT30;65856;52.178;21.176;2023-12-20T03:50:12;7.57;84.49
76897;SHT30;65856;52.178;21.176;2023-12-20T03:52:38;7.57;84.44
76897;SHT30;65856;52.178;21.176;2023-12-20T03:55:03;7.57;84.43
76897;SHT30;65856;52.178;21.176;2023-12-20T03:57:29;7.58;84.49
76897;SHT30;65856;52.178;21.176;2023-12-20T03:59:55;7.59;84.50
76897;SHT30;65856;52.178;21.176;2023-12-20T04:02:20;7.61;84.49
76897;SHT30;65856;52.178;21.176;2023-12-20T04:04:45;7.63;84.47
76897;SHT30;65856;52.178;21.176;2023-12-20T04:07:11;7.65;84.41
76897;SHT30;65856;52.178;21.176;2023-12-20T04:09:36;7.66;84.38
76897;SHT30;65856;52.178;21.176;2023-12-20T04:12:02;7.65;84.35
76897;SHT30;65856;52.178;21.176;2023-12-20T04:14:28;7.64;84.35
76897;SHT30;65856;52.178;21.176;2023-12-20T04:16:54;7.64;84.32
76897;SHT30;65856;52.178;21.176;2023-12-20T04:19:19;7.64;84.34
76897;SHT30;65856;52.178;21.176;2023-12-20T04:21:45;7.61;84.31
76897;SHT30;65856;52.178;21.176;2023-12-20T04:24:10;7.60;84.30
76897;SHT30;65856;52.178;21.176;2023-12-20T04:26:35;7.60;84.30
76897;SHT30;65856;52.178;21.176;2023-12-20T04:29:01;7.60;84.31
76897;SHT30;65856;52.178;21.176;2023-12-20T04:31:26;7.60;84.31
76897;SHT30;65856;52.178;21.176;2023-12-20T04:33:52;7.58;84.39
76897;SHT30;65856;52.178;21.176;2023-12-20T04:36:17;7.58;84.40
76897;SHT30;65856;52.178;21.176;2023-12-20T04:38:42;7.58;84.40
76897;SHT30;65856;52.178;21.176;2023-12-20T04:41:08;7.59;84.40
76897;SHT30;65856;52.178;21.176;2023-12-20T04:43:33;7.60;84.41
76897;SHT30;65856;52.178;21.176;2023-12-20T04:45:59;7.61;84.40
76897;SHT30;65856;52.178;21.176;2023-12-20T04:48:24;7.62;84.40
76897;SHT30;65856;52.178;21.176;2023-12-20T04:50:49;7.61;84.40
76897;SHT30;65856;52.178;21.176;2023-12-20T04:53:15;7.61;84.44
76897;SHT30;65856;52.178;21.176;2023-12-20T04:55:40;7.62;84.43
76897;SHT30;65856;52.178;21.176;2023-12-20T04:58:05;7.61;84.48
76897;SHT30;65856;52.178;21.176;2023-12-20T05:00:31;7.61;84.50
76897;SHT30;65856;52.178;21.176;2023-12-20T05:02:56;7.61;84.50
76897;SHT30;65856;52.178;21.176;2023-12-20T05:05:21;7.60;84.59
76897;SHT30;65856;52.178;21.176;2023-12-20T05:07:47;7.58;84.58
76897;SHT30;65856;52.178;21.176;2023-12-20T05:10:12;7.57;84.62
76897;SHT30;65856;52.178;21.176;2023-12-20T05:12:38;7.61;84.63
76897;SHT30;65856;52.178;21.176;2023-12-20T05:15:05;7.59;84.61
76897;SHT30;65856;52.178;21.176;2023-12-20T05:17:31;7.59;84.61
76897;SHT30;65856;52.178;21.176;2023-12-20T05:19:57;7.62;84.62
76897;SHT30;65856;52.178;21.176;2023-12-20T05:22:22;7.63;84.64
76897;SHT30;65856;52.178;21.176;2023-12-20T05:24:47;7.63;84.63
76897;SHT30;65856;52.178;21.176;2023-12-20T05:27:13;7.64;84.62
76897;SHT30;65856;52.178;21.176;2023-12-20T05:29:38;7.65;84.61
76897;SHT30;65856;52.178;21.176;2023-12-20T05:32:03;7.64;84.60
76897;SHT30;65856;52.178;21.176;2023-12-20T05:34:30;7.63;84.63
76897;SHT30;65856;52.178;21.176;2023-12-20T05:36:57;7.63;84.69
76897;SHT30;65856;52.178;21.176;2023-12-20T05:39:23;7.63;84.70
76897;SHT30;65856;52.178;21.176;2023-12-20T05:41:48;7.64;84.70
76897;SHT30;65856;52.178;21.176;2023-12-20T05:44:14;7.64;84.71
76897;SHT30;65856;52.178;21.176;2023-12-20T05:46:39;7.66;84.70
76897;SHT30;65856;52.178;21.176;2023-12-20T05:49:05;7.65;84.70
76897;SHT30;65856;52.178;21.176;2023-12-20T05:51:31;7.66;84.71
76897;SHT30;65856;52.178;21.176;2023-12-20T05:53:57;7.66;84.71
76897;SHT30;65856;52.178;21.176;2023-12-20T05:56:23;7.66;84.71
76897;SHT30;65856;52.178;21.176;2023-12-20T05:58:48;7.67;84.70
76897;SHT30;65856;52.178;21.176;2023-12-20T06:01:14;7.69;84.70
76897;SHT30;65856;52.178;21.176;2023-12-20T06:03:42;7.69;84.70
76897;SHT30;65856;52.178;21.176;2023-12-20T06:06:08;7.70;84.70
76897;SHT30;65856;52.178;21.176;2023-12-20T06:08:34;7.70;84.69
76897;SHT30;65856;52.178;21.176;2023-12-20T06:10:59;7.72;84.63
76897;SHT30;65856;52.178;21.176;2023-12-20T06:13:25;7.74;84.60
76897;SHT30;65856;52.178;21.176;2023-12-20T06:15:50;7.74;84.61
76897;SHT30;65856;52.178;21.176;2023-12-20T06:18:17;7.74;84.60
76897;SHT30;65856;52.178;21.176;2023-12-20T06:20:42;7.74;84.60
76897;SHT30;65856;52.178;21.176;2023-12-20T06:23:07;7.74;84.60
76897;SHT30;65856;52.178;21.176;2023-12-20T06:25:33;7.74;84.59
76897;SHT30;65856;52.178;21.176;2023-12-20T06:27:58;7.72;84.53
76897;SHT30;65856;52.178;21.176;2023-12-20T06:30:23;7.70;84.51
76897;SHT30;65856;52.178;21.176;2023-12-20T06:32:50;7.77;84.65
76897;SHT30;65856;52.178;21.176;2023-12-20T06:35:15;8.09;84.49
76897;SHT30;65856;52.178;21.176;2023-12-20T06:37:41;8.23;83.94
76897;SHT30;65856;52.178;21.176;2023-12-20T06:40:09;8.18;83.73
76897;SHT30;65856;52.178;21.176;2023-12-20T06:42:35;8.12;83.74
76897;SHT30;65856;52.178;21.176;2023-12-20T06:45:01;8.07;83.80
76897;SHT30;65856;52.178;21.176;2023-12-20T06:47:30;8.02;83.85
76897;SHT30;65856;52.178;21.176;2023-12-20T06:49:55;7.99;83.88
76897;SHT30;65856;52.178;21.176;2023-12-20T06:52:20;7.97;83.88
76897;SHT30;65856;52.178;21.176;2023-12-20T06:54:46;7.95;83.90
76897;SHT30;65856;52.178;21.176;2023-12-20T06:57:11;7.93;83.90
76897;SHT30;65856;52.178;21.176;2023-12-20T06:59:40;7.90;83.92
76897;SHT30;65856;52.178;21.176;2023-12-20T07:02:06;7.90;83.94
76897;SHT30;65856;52.178;21.176;2023-12-20T07:04:31;7.88;83.90
76897;SHT30;65856;52.178;21.176;2023-12-20T07:06:57;7.87;83.90
76897;SHT30;65856;52.178;21.176;2023-12-20T07:09:25;7.86;83.92
76897;SHT30;65856;52.178;21.176;2023-12-20T07:11:51;7.86;83.96
76897;SHT30;65856;52.178;21.176;2023-12-20T07:14:17;7.85;83.91
76897;SHT30;65856;52.178;21.176;2023-12-20T07:16:42;7.85;83.95
76897;SHT30;65856;52.178;21.176;2023-12-20T07:19:08;7.85;83.98
76897;SHT30;65856;52.178;21.176;2023-12-20T07:21:33;7.84;84.00
76897;SHT30;65856;52.178;21.176;2023-12-20T07:23:59;7.87;84.10
76897;SHT30;65856;52.178;21.176;2023-12-20T07:26:24;7.90;84.06
76897;SHT30;65856;52.178;21.176;2023-12-20T07:28:49;7.92;83.98
76897;SHT30;65856;52.178;21.176;2023-12-20T07:31:15;7.90;83.94
76897;SHT30;65856;52.178;21.176;2023-12-20T07:33:41;7.90;83.95
76897;SHT30;65856;52.178;21.176;2023-12-20T07:36:07;7.90;83.95
76897;SHT30;65856;52.178;21.176;2023-12-20T07:38:33;7.87;83.96
76897;SHT30;65856;52.178;21.176;2023-12-20T07:40:58;7.86;83.97
76897;SHT30;65856;52.178;21.176;2023-12-20T07:43:24;7.85;84.02
76897;SHT30;65856;52.178;21.176;2023-12-20T07:45:49;7.87;84.20
76897;SHT30;65856;52.178;21.176;2023-12-20T07:48:15;7.88;84.16
76897;SHT30;65856;52.178;21.176;2023-12-20T07:50:40;7.88;84.11
76897;SHT30;65856;52.178;21.176;2023-12-20T07:53:07;7.85;84.10
76897;SHT30;65856;52.178;21.176;2023-12-20T07:55:32;7.82;84.10
76897;SHT30;65856;52.178;21.176;2023-12-20T07:57:59;7.80;84.10
76897;SHT30;65856;52.178;21.176;2023-12-20T08:00:25;7.80;84.16
76897;SHT30;65856;52.178;21.176;2023-12-20T08:02:50;7.79;84.20
76897;SHT30;65856;52.178;21.176;2023-12-20T08:05:16;7.79;84.19
76897;SHT30;65856;52.178;21.176;2023-12-20T08:07:41;7.79;84.20
76897;SHT30;65856;52.178;21.176;2023-12-20T08:10:07;7.79;84.21
76897;SHT30;65856;52.178;21.176;2023-12-20T08:12:32;7.77;84.21
76897;SHT30;65856;52.178;21.176;2023-12-20T08:14:58;7.78;84.22
76897;SHT30;65856;52.178;21.176;2023-12-20T08:17:24;7.77;84.18
76897;SHT30;65856;52.178;21.176;2023-12-20T08:19:49;7.75;84.21
76897;SHT30;65856;52.178;21.176;2023-12-20T08:22:15;7.72;84.21
76897;SHT30;65856;52.178;21.176;2023-12-20T08:24:40;7.73;84.29
76897;SHT30;65856;52.178;21.176;2023-12-20T08:27:05;7.73;84.28
76897;SHT30;65856;52.178;21.176;2023-12-20T08:29:31;7.73;84.30
76897;SHT30;65856;52.178;21.176;2023-12-20T08:31:56;7.73;84.30
76897;SHT30;65856;52.178;21.176;2023-12-20T08:34:22;7.71;84.30
76897;SHT30;65856;52.178;21.176;2023-12-20T08:36:51;7.72;84.30
76897;SHT30;65856;52.178;21.176;2023-12-20T08:39:17;7.71;84.30
76897;SHT30;65856;52.178;21.176;2023-12-20T08:41:55;7.71;84.30
76897;SHT30;65856;52.178;21.176;2023-12-20T08:44:20;7.72;84.32
76897;SHT30;65856;52.178;21.176;2023-12-20T08:46:47;7.73;84.32
76897;SHT30;65856;52.178;21.176;2023-12-20T08:49:13;7.73;84.38
76897;SHT30;65856;52.178;21.176;2023-12-20T08:51:38;7.73;84.32
76897;SHT30;65856;52.178;21.176;2023-12-20T08:54:06;7.74;84.35
76897;SHT30;65856;52.178;21.176;2023-12-20T08:56:33;7.75;84.31
76897;SHT30;65856;52.178;21.176;2023-12-20T08:58:59;7.73;84.24
76897;SHT30;65856;52.178;21.176;2023-12-20T09:01:24;7.70;84.30
76897;SHT30;65856;52.178;21.176;2023-12-20T09:03:50;7.70;84.40
76897;SHT30;65856;52.178;21.176;2023-12-20T09:06:15;7.69;84.40
76897;SHT30;65856;52.178;21.176;2023-12-20T09:08:41;7.71;84.48
76897;SHT30;65856;52.178;21.176;2023-12-20T09:11:06;7.72;84.50
76897;SHT30;65856;52.178;21.176;2023-12-20T09:13:32;7.72;84.54
76897;SHT30;65856;52.178;21.176;2023-12-20T09:15:57;7.74;84.60
76897;SHT30;65856;52.178;21.176;2023-12-20T09:18:23;7.75;84.57
76897;SHT30;65856;52.178;21.176;2023-12-20T09:20:49;7.76;84.52
76897;SHT30;65856;52.178;21.176;2023-12-20T09:23:14;7.76;84.53
76897;SHT30;65856;52.178;21.176;2023-12-20T09:25:40;7.75;84.51
76897;SHT30;65856;52.178;21.176;2023-12-20T09:28:05;7.74;84.50
76897;SHT30;65856;52.178;21.176;2023-12-20T09:30:31;7.75;84.50
76897;SHT30;65856;52.178;21.176;2023-12-20T09:32:56;7.75;84.50
76897;SHT30;65856;52.178;21.176;2023-12-20T09:35:22;7.75;84.50
76897;SHT30;65856;52.178;21.176;2023-12-20T09:37:48;7.76;84.48
76897;SHT30;65856;52.178;21.176;2023-12-20T09:40:14;7.75;84.50
76897;SHT30;65856;52.178;21.176;2023-12-20T09:42:53;7.74;84.50
76897;SHT30;65856;52.178;21.176;2023-12-20T09:45:23;7.74;84.50
76897;SHT30;65856;52.178;21.176;2023-12-20T09:47:49;7.75;84.51
76897;SHT30;65856;52.178;21.176;2023-12-20T09:50:16;7.75;84.54
76897;SHT30;65856;52.178;21.176;2023-12-20T09:52:43;7.76;84.56
76897;SHT30;65856;52.178;21.176;2023-12-20T09:55:11;7.76;84.56
76897;SHT30;65856;52.178;21.176;2023-12-20T09:57:37;7.76;84.60
76897;SHT30;65856;52.178;21.176;2023-12-20T10:00:02;7.77;84.62
76897;SHT30;65856;52.178;21.176;2023-12-20T10:02:29;7.77;84.60
76897;SHT30;65856;52.178;21.176;2023-12-20T10:04:57;7.76;84.67
76897;SHT30;65856;52.178;21.176;2023-12-20T10:07:22;7.76;84.68
76897;SHT30;65856;52.178;21.176;2023-12-20T10:09:48;7.77;84.70
76897;SHT30;65856;52.178;21.176;2023-12-20T10:12:17;7.78;84.70
76897;SHT30;65856;52.178;21.176;2023-12-20T10:14:42;7.79;84.76
76897;SHT30;65856;52.178;21.176;2023-12-20T10:17:08;7.80;84.72
76897;SHT30;65856;52.178;21.176;2023-12-20T10:19:33;7.80;84.70
76897;SHT30;65856;52.178;21.176;2023-12-20T10:21:59;7.80;84.70
76897;SHT30;65856;52.178;21.176;2023-12-20T10:24:25;7.81;84.68
76897;SHT30;65856;52.178;21.176;2023-12-20T10:27:03;7.81;84.70
76897;SHT30;65856;52.178;21.176;2023-12-20T10:29:36;7.81;84.70
76897;SHT30;65856;52.178;21.176;2023-12-20T10:32:21;7.81;84.66
76897;SHT30;65856;52.178;21.176;2023-12-20T10:34:48;7.80;84.66
76897;SHT30;65856;52.178;21.176;2023-12-20T10:37:14;7.81;84.69
76897;SHT30;65856;52.178;21.176;2023-12-20T10:39:39;7.84;84.68
76897;SHT30;65856;52.178;21.176;2023-12-20T10:42:08;7.83;84.60
76897;SHT30;65856;52.178;21.176;2023-12-20T10:44:36;7.81;84.60
76897;SHT30;65856;52.178;21.176;2023-12-20T10:47:02;7.81;84.57
76897;SHT30;65856;52.178;21.176;2023-12-20T10:49:29;7.81;84.58
76897;SHT30;65856;52.178;21.176;2023-12-20T10:51:55;7.81;84.60
76897;SHT30;65856;52.178;21.176;2023-12-20T10:54:24;7.81;84.60
76897;SHT30;65856;52.178;21.176;2023-12-20T10:56:50;7.81;84.58
76897;SHT30;65856;52.178;21.176;2023-12-20T10:59:18;7.81;84.59
76897;SHT30;65856;52.178;21.176;2023-12-20T11:01:48;7.81;84.57
76897;SHT30;65856;52.178;21.176;2023-12-20T11:04:17;7.83;84.60
76897;SHT30;65856;52.178;21.176;2023-12-20T11:06:52;7.84;84.64
76897;SHT30;65856;52.178;21.176;2023-12-20T11:10:12;7.87;84.60
76897;SHT30;65856;52.178;21.176;2023-12-20T11:12:53;7.85;84.50
76897;SHT30;65856;52.178;21.176;2023-12-20T11:15:25;7.84;84.50
76897;SHT30;65856;52.178;21.176;2023-12-20T11:17:55;7.85;84.50
76897;SHT30;65856;52.178;21.176;2023-12-20T11:20:34;7.84;84.54
76897;SHT30;65856;52.178;21.176;2023-12-20T11:23:02;7.86;84.53
76897;SHT30;65856;52.178;21.176;2023-12-20T11:25:28;7.87;84.50
76897;SHT30;65856;52.178;21.176;2023-12-20T11:28:06;7.87;84.47
76897;SHT30;65856;52.178;21.176;2023-12-20T11:30:42;7.85;84.40
76897;SHT30;65856;52.178;21.176;2023-12-20T11:33:08;7.84;84.45
76897;SHT30;65856;52.178;21.176;2023-12-20T11:35:34;7.85;84.40
76897;SHT30;65856;52.178;21.176;2023-12-20T11:38:01;7.84;84.41
76897;SHT30;65856;52.178;21.176;2023-12-20T11:40:27;7.85;84.37
76897;SHT30;65856;52.178;21.176;2023-12-20T11:42:52;7.84;84.30
76897;SHT30;65856;52.178;21.176;2023-12-20T11:45:23;7.81;84.27
76897;SHT30;65856;52.178;21.176;2023-12-20T11:47:52;7.82;84.32
76897;SHT30;65856;52.178;21.176;2023-12-20T11:50:19;7.82;84.37
76897;SHT30;65856;52.178;21.176;2023-12-20T11:52:47;7.81;84.37
76897;SHT30;65856;52.178;21.176;2023-12-20T11:55:13;7.83;84.43
76897;SHT30;65856;52.178;21.176;2023-12-20T11:57:39;7.84;84.41
76897;SHT30;65856;52.178;21.176;2023-12-20T12:00:06;7.83;84.40
76897;SHT30;65856;52.178;21.176;2023-12-20T12:02:33;7.84;84.40
76897;SHT30;65856;52.178;21.176;2023-12-20T12:05:01;7.84;84.40
76897;SHT30;65856;52.178;21.176;2023-12-20T12:07:27;7.85;84.41
76897;SHT30;65856;52.178;21.176;2023-12-20T12:09:52;7.86;84.35
76897;SHT30;65856;52.178;21.176;2023-12-20T12:12:18;7.84;84.38
76897;SHT30;65856;52.178;21.176;2023-12-20T12:14:44;7.82;84.39
76897;SHT30;65856;52.178;21.176;2023-12-20T12:17:13;7.82;84.38
76897;SHT30;65856;52.178;21.176;2023-12-20T12:19:39;7.81;84.32
76897;SHT30;65856;52.178;21.176;2023-12-20T12:22:12;7.80;84.34
76897;SHT30;65856;52.178;21.176;2023-12-20T12:24:40;7.81;84.40
76897;SHT30;65856;52.178;21.176;2023-12-20T12:27:09;7.81;84.39
76897;SHT30;65856;52.178;21.176;2023-12-20T12:29:35;7.80;84.23
76897;SHT30;65856;52.178;21.176;2023-12-20T12:32:04;7.73;84.08
76897;SHT30;65856;52.178;21.176;2023-12-20T12:34:33;7.72;84.08
76897;SHT30;65856;52.178;21.176;2023-12-20T12:37:00;7.69;84.07
76897;SHT30;65856;52.178;21.176;2023-12-20T12:39:26;7.66;84.01
76897;SHT30;65856;52.178;21.176;2023-12-20T12:41:52;7.65;84.00
76897;SHT30;65856;52.178;21.176;2023-12-20T12:44:18;7.64;84.01
76897;SHT30;65856;52.178;21.176;2023-12-20T12:46:48;7.64;84.00
76897;SHT30;65856;52.178;21.176;2023-12-20T12:49:16;7.65;83.97
76897;SHT30;65856;52.178;21.176;2023-12-20T12:51:42;7.62;83.92
76897;SHT30;65856;52.178;21.176;2023-12-20T12:54:08;7.58;84.00
76897;SHT30;65856;52.178;21.176;2023-12-20T12:56:35;7.57;84.07
76897;SHT30;65856;52.178;21.176;2023-12-20T12:59:01;7.55;84.05
76897;SHT30;65856;52.178;21.176;2023-12-20T13:01:27;7.53;83.99
76897;SHT30;65856;52.178;21.176;2023-12-20T13:03:52;7.48;83.98
76897;SHT30;65856;52.178;21.176;2023-12-20T13:06:18;7.48;84.08
76897;SHT30;65856;52.178;21.176;2023-12-20T13:08:43;7.47;84.03
76897;SHT30;65856;52.178;21.176;2023-12-20T13:11:09;7.43;83.96
76897;SHT30;65856;52.178;21.176;2023-12-20T13:13:35;7.38;83.98
76897;SHT30;65856;52.178;21.176;2023-12-20T13:16:00;7.34;83.94
76897;SHT30;65856;52.178;21.176;2023-12-20T13:18:25;7.30;83.91
76897;SHT30;65856;52.178;21.176;2023-12-20T13:20:51;7.30;83.91
76897;SHT30;65856;52.178;21.176;2023-12-20T13:23:16;7.30;83.94
76897;SHT30;65856;52.178;21.176;2023-12-20T13:25:43;7.30;83.81
76897;SHT30;65856;52.178;21.176;2023-12-20T13:28:10;7.26;83.75
76897;SHT30;65856;52.178;21.176;2023-12-20T13:30:35;7.23;83.63
76897;SHT30;65856;52.178;21.176;2023-12-20T13:33:01;7.20;83.57
76897;SHT30;65856;52.178;21.176;2023-12-20T13:35:26;7.14;83.60
76897;SHT30;65856;52.178;21.176;2023-12-20T13:37:51;7.14;83.60
76897;SHT30;65856;52.178;21.176;2023-12-20T13:40:17;7.12;83.54
76897;SHT30;65856;52.178;21.176;2023-12-20T13:42:43;7.10;83.59
76897;SHT30;65856;52.178;21.176;2023-12-20T13:45:08;7.10;83.66
76897;SHT30;65856;52.178;21.176;2023-12-20T13:47:34;7.09;83.60
76897;SHT30;65856;52.178;21.176;2023-12-20T13:50:00;7.10;83.60
76897;SHT30;65856;52.178;21.176;2023-12-20T13:52:25;7.13;83.61
76897;SHT30;65856;52.178;21.176;2023-12-20T13:54:51;7.13;83.50
76897;SHT30;65856;52.178;21.176;2023-12-20T13:57:16;7.14;83.47
76897;SHT30;65856;52.178;21.176;2023-12-20T13:59:42;7.12;83.33
76897;SHT30;65856;52.178;21.176;2023-12-20T14:02:08;7.10;83.20
76897;SHT30;65856;52.178;21.176;2023-12-20T14:04:33;7.06;83.16
76897;SHT30;65856;52.178;21.176;2023-12-20T14:06:59;7.05;83.17
76897;SHT30;65856;52.178;21.176;2023-12-20T14:09:24;7.04;83.14
76897;SHT30;65856;52.178;21.176;2023-12-20T14:11:50;7.02;83.18
76897;SHT30;65856;52.178;21.176;2023-12-20T14:14:15;7.02;83.14
76897;SHT30;65856;52.178;21.176;2023-12-20T14:16:40;7.00;83.16
76897;SHT30;65856;52.178;21.176;2023-12-20T14:19:08;6.99;83.10
76897;SHT30;65856;52.178;21.176;2023-12-20T14:21:34;6.99;83.19
76897;SHT30;65856;52.178;21.176;2023-12-20T14:24:00;7.00;83.30
76897;SHT30;65856;52.178;21.176;2023-12-20T14:26:25;7.01;83.22
76897;SHT30;65856;52.178;21.176;2023-12-20T14:28:52;6.99;83.10
76897;SHT30;65856;52.178;21.176;2023-12-20T14:31:18;7.00;82.96
76897;SHT30;65856;52.178;21.176;2023-12-20T14:33:43;6.99;82.89
76897;SHT30;65856;52.178;21.176;2023-12-20T14:36:09;7.01;82.90
76897;SHT30;65856;52.178;21.176;2023-12-20T14:38:34;7.02;83.00
76897;SHT30;65856;52.178;21.176;2023-12-20T14:41:00;7.03;82.80
76897;SHT30;65856;52.178;21.176;2023-12-20T14:43:28;7.01;82.70
76897;SHT30;65856;52.178;21.176;2023-12-20T14:45:54;7.00;82.71
76897;SHT30;65856;52.178;21.176;2023-12-20T14:48:19;7.01;82.70
76897;SHT30;65856;52.178;21.176;2023-12-20T14:50:46;7.03;82.72
76897;SHT30;65856;52.178;21.176;2023-12-20T14:53:13;7.01;82.59
76897;SHT30;65856;52.178;21.176;2023-12-20T14:55:41;7.01;82.47
76897;SHT30;65856;52.178;21.176;2023-12-20T14:58:07;6.98;82.28
76897;SHT30;65856;52.178;21.176;2023-12-20T15:00:32;6.98;82.09
76897;SHT30;65856;52.178;21.176;2023-12-20T15:02:58;6.98;82.02
76897;SHT30;65856;52.178;21.176;2023-12-20T15:05:33;6.98;81.97
76897;SHT30;65856;52.178;21.176;2023-12-20T15:07:59;6.98;81.92
76897;SHT30;65856;52.178;21.176;2023-12-20T15:10:24;6.98;81.73
76897;SHT30;65856;52.178;21.176;2023-12-20T15:12:50;6.97;81.59
76897;SHT30;65856;52.178;21.176;2023-12-20T15:15:15;6.97;81.48
76897;SHT30;65856;52.178;21.176;2023-12-20T15:17:40;6.96;81.41
76897;SHT30;65856;52.178;21.176;2023-12-20T15:20:06;6.94;81.35
76897;SHT30;65856;52.178;21.176;2023-12-20T15:22:35;6.94;81.23
76897;SHT30;65856;52.178;21.176;2023-12-20T15:25:00;6.93;81.16